Time;durP1;ratioP1;P1;durP2;ratioP2;P2;SDS_P1;SDS_P2;PMS_P1;PMS_P2;Temp;Humidity;BMP_temperature;BMP_pressure;BME280_temperature;BME280_humidity;BME280_pressure;Samples;Min_cycle;Max_cycle;Signal;HPM_P1;HPM_P2
2022/10/21 00:00:11;;;;;;;17.67;10.93;;;;;;;15.08;nan;99186.78;4941982;29;20233;-77
2022/10/21 00:02:38;;;;;;;19.85;10.82;;;;;;;15.05;nan;99183.44;4943026;28;20210;-77
2022/10/21 00:05:04;;;;;;;29.37;14.90;;;;;;;15.03;nan;99198.59;4944743;29;20192;-77
2022/10/21 00:07:30;;;;;;;33.30;12.63;;;;;;;15.03;nan;99192.47;4942774;28;20213;-77
2022/10/21 00:09:55;;;;;;;28.63;13.17;;;;;;;15.01;nan;99189.13;4938979;28;20487;-77
2022/10/21 00:12:21;;;;;;;27.03;13.17;;;;;;;15.00;nan;99190.09;4941287;29;20206;-77
2022/10/21 00:14:46;;;;;;;12.03;10.80;;;;;;;15.01;nan;99203.19;4940747;28;20209;-77
2022/10/21 00:17:11;;;;;;;28.70;12.10;;;;;;;15.02;nan;99204.03;4941732;29;20475;-77
2022/10/21 00:19:38;;;;;;;18.27;12.10;;;;;;;15.04;nan;99202.06;4941988;28;20231;-77
2022/10/21 00:22:04;;;;;;;13.70;11.18;;;;;;;15.04;nan;99225.88;4943089;29;20212;-77
2022/10/21 00:24:30;;;;;;;14.70;11.50;;;;;;;15.07;nan;99232.69;4943611;28;20207;-76
2022/10/21 00:26:55;;;;;;;26.60;15.70;;;;;;;15.12;nan;99241.94;4942475;29;20440;-77
2022/10/21 00:29:20;;;;;;;29.80;14.00;;;;;;;15.12;nan;99228.69;4938276;28;20492;-77
2022/10/21 00:31:46;;;;;;;19.73;12.80;;;;;;;15.08;nan;99243.16;4941763;28;20193;-77
2022/10/21 00:34:11;;;;;;;14.90;11.97;;;;;;;15.07;nan;99224.75;4943011;29;20188;-77
2022/10/21 00:36:37;;;;;;;14.03;12.00;;;;;;;15.05;nan;99193.19;4942847;29;20662;-77
2022/10/21 00:39:02;;;;;;;17.43;12.13;;;;;;;15.02;nan;99185.53;4939207;29;20242;-79
2022/10/21 00:41:28;;;;;;;13.00;10.73;;;;;;;15.03;nan;99192.47;4945580;28;20250;-78
2022/10/21 00:44:04;;;;;;;15.53;12.73;;;;;;;15.03;nan;99181.88;4942819;28;20198;-78
2022/10/21 00:46:44;;;;;;;14.65;11.07;;;;;;;15.05;nan;99180.78;4943699;28;20436;-78
2022/10/21 00:49:19;;;;;;;14.48;10.85;;;;;;;15.12;nan;99191.66;4938353;28;20214;-78
2022/10/21 00:51:48;;;;;;;17.45;9.85;;;;;;;15.16;nan;99182.47;4942883;29;20802;-78
2022/10/21 00:54:15;;;;;;;15.77;10.23;;;;;;;15.17;nan;99167.44;4943952;29;20889;-78
2022/10/21 00:56:44;;;;;;;13.50;10.70;;;;;;;15.15;nan;99154.34;4939717;28;20196;-78
2022/10/21 00:59:10;;;;;;;12.75;10.75;;;;;;;15.17;nan;99162.13;4938558;29;20221;-78
2022/10/21 01:01:36;;;;;;;15.52;10.18;;;;;;;15.19;nan;99174.25;4942346;28;20207;-78
2022/10/21 01:04:02;;;;;;;14.03;11.13;;;;;;;15.19;nan;99173.41;4943611;29;20209;-78
2022/10/21 01:06:29;;;;;;;10.32;9.18;;;;;;;15.21;nan;99163.53;4941667;28;20281;-78
2022/10/21 01:08:56;;;;;;;14.90;9.95;;;;;;;15.20;nan;99173.28;4939184;28;20826;-77
2022/10/21 01:11:23;;;;;;;15.93;11.27;;;;;;;15.20;nan;99165.34;4943435;29;20946;-77
2022/10/21 01:14:03;;;;;;;13.00;10.63;;;;;;;15.23;nan;99151.84;4940386;28;20207;-77
2022/10/21 01:16:47;;;;;;;13.90;10.15;;;;;;;15.24;nan;99132.34;4940456;28;20198;-77
2022/10/21 01:19:42;;;;;;;12.60;9.80;;;;;;;15.27;nan;99125.94;4938923;28;20247;-77
2022/10/21 01:22:26;;;;;;;10.77;9.68;;;;;;;15.31;nan;99126.50;4942581;29;20721;-79
2022/10/21 01:25:28;;;;;;;9.65;8.60;;;;;;;15.27;nan;99120.66;4942264;29;20205;-78
2022/10/21 01:28:04;;;;;;;13.10;9.90;;;;;;;15.16;nan;99105.75;4942274;29;20233;-78
2022/10/21 01:30:36;;;;;;;16.88;10.35;;;;;;;15.16;nan;99111.03;4941955;28;20237;-78
2022/10/21 01:33:06;;;;;;;10.00;8.85;;;;;;;15.16;nan;99111.03;4941110;28;20297;-79
2022/10/21 01:35:53;;;;;;;12.68;9.23;;;;;;;15.16;nan;99105.75;4941441;29;20199;-78
2022/10/21 01:38:21;;;;;;;11.07;9.50;;;;;;;15.18;nan;99106.44;4940293;29;20199;-78
2022/10/21 01:41:07;;;;;;;19.52;10.30;;;;;;;15.22;nan;99089.31;4940402;29;20210;-78
2022/10/21 01:43:40;;;;;;;14.35;7.95;;;;;;;15.25;nan;99085.53;4940096;29;20622;-77
2022/10/21 01:46:12;;;;;;;12.10;10.32;;;;;;;15.29;nan;99080.84;4941103;29;20197;-78
2022/10/21 01:48:43;;;;;;;13.05;9.48;;;;;;;15.31;nan;99077.06;4940812;28;20240;-78
2022/10/21 01:51:10;;;;;;;10.32;7.93;;;;;;;15.33;nan;99077.75;4941350;29;20191;-78
2022/10/21 01:53:53;;;;;;;10.05;9.00;;;;;;;15.36;nan;99072.16;4938965;28;20243;-77
2022/10/21 01:56:20;;;;;;;14.73;9.68;;;;;;;15.39;nan;99071.91;4942411;29;20194;-78
2022/10/21 01:58:48;;;;;;;13.35;9.13;;;;;;;15.41;nan;99067.28;4939858;28;20218;-78
2022/10/21 02:01:15;;;;;;;12.88;8.90;;;;;;;15.45;nan;99066.03;4937099;29;20668;-78
2022/10/21 02:03:44;;;;;;;12.25;7.80;;;;;;;15.48;nan;99075.50;4941826;29;20197;-77
2022/10/21 02:06:12;;;;;;;11.43;9.38;;;;;;;15.49;nan;99080.66;4941125;29;20563;-77
2022/10/21 02:08:40;;;;;;;13.32;9.20;;;;;;;15.51;nan;99084.97;4938509;29;20246;-77
2022/10/21 02:11:08;;;;;;;10.00;8.20;;;;;;;15.51;nan;99090.28;4938280;29;20191;-78
2022/10/21 02:13:43;;;;;;;9.65;7.50;;;;;;;15.50;nan;99094.75;4939764;29;20277;-78
2022/10/21 02:16:14;;;;;;;13.63;8.90;;;;;;;15.51;nan;99100.88;4940104;29;20356;-78
2022/10/21 02:18:39;;;;;;;13.13;8.70;;;;;;;15.51;nan;99090.28;4937968;28;20207;-78
2022/10/21 02:21:15;;;;;;;15.33;8.17;;;;;;;15.55;nan;99096.94;4942120;29;20271;-78
2022/10/21 02:23:52;;;;;;;9.95;7.65;;;;;;;15.59;nan;99103.63;4942297;29;20221;-78
2022/10/21 02:26:18;;;;;;;13.32;7.65;;;;;;;15.60;nan;99103.47;4943239;28;20182;-79
2022/10/21 02:28:43;;;;;;;8.07;6.70;;;;;;;15.59;nan;99101.81;4941493;28;20571;-78
2022/10/21 02:31:21;;;;;;;9.40;8.23;;;;;;;15.60;nan;99095.53;4944059;28;20389;-78
2022/10/21 02:34:03;;;;;;;9.38;7.53;;;;;;;15.61;nan;99075.22;4940856;29;20191;-78
2022/10/21 02:36:43;;;;;;;11.00;8.45;;;;;;;15.61;nan;99059.34;4943160;29;20187;-78
2022/10/21 02:39:19;;;;;;;10.82;8.10;;;;;;;15.60;nan;99062.94;4940692;29;20204;-78
2022/10/21 02:41:47;;;;;;;11.27;7.95;;;;;;;15.59;nan;99066.56;4943250;29;20292;-78
2022/10/21 02:44:13;;;;;;;9.23;8.27;;;;;;;15.60;nan;99060.28;4942679;29;20189;-78
2022/10/21 02:46:41;;;;;;;15.03;8.70;;;;;;;15.59;nan;99040.94;4942415;29;20529;-78
2022/10/21 02:49:07;;;;;;;12.60;8.27;;;;;;;15.56;nan;99035.09;4937153;29;20815;-78
2022/10/21 02:51:33;;;;;;;10.00;7.67;;;;;;;15.54;nan;99032.59;4941871;28;20190;-78
2022/10/21 02:53:59;;;;;;;9.90;8.57;;;;;;;15.51;nan;99035.53;4940820;29;20869;-78
2022/10/21 02:56:25;;;;;;;10.83;8.37;;;;;;;15.52;nan;99045.13;4935292;29;20214;-78
2022/10/21 02:58:51;;;;;;;10.30;8.43;;;;;;;15.53;nan;99049.44;4936842;28;20241;-78
2022/10/21 03:01:16;;;;;;;9.00;8.10;;;;;;;15.55;nan;99033.41;4941996;29;20242;-78
2022/10/21 03:03:42;;;;;;;11.20;8.53;;;;;;;15.56;nan;99035.94;4939197;28;20197;-78
2022/10/21 03:06:07;;;;;;;13.90;8.83;;;;;;;15.57;nan;99034.09;4940742;29;20199;-78
2022/10/21 03:08:32;;;;;;;11.67;8.70;;;;;;;15.58;nan;99041.06;4940375;28;20201;-78
2022/10/21 03:10:58;;;;;;;13.23;8.80;;;;;;;15.57;nan;99050.81;4940336;29;20190;-78
2022/10/21 03:13:23;;;;;;;15.30;8.87;;;;;;;15.56;nan;99046.50;4939557;29;20198;-78
2022/10/21 03:15:49;;;;;;;14.30;10.53;;;;;;;15.58;nan;99052.50;4939294;29;20186;-78
2022/10/21 03:18:15;;;;;;;11.20;8.40;;;;;;;15.60;nan;99041.75;4935480;29;20194;-78
2022/10/21 03:20:40;;;;;;;19.42;9.32;;;;;;;15.58;nan;99035.75;4937862;28;20226;-77
2022/10/21 03:23:06;;;;;;;11.47;8.20;;;;;;;15.56;nan;99041.22;4939400;29;20482;-78
2022/10/21 03:25:32;;;;;;;9.53;8.60;;;;;;;15.54;nan;99051.09;4940061;29;20190;-77
2022/10/21 03:27:57;;;;;;;9.30;7.50;;;;;;;15.56;nan;99045.69;4939108;29;20222;-78
2022/10/21 03:30:23;;;;;;;11.10;8.60;;;;;;;15.52;nan;99039.81;4936595;28;20985;-78
2022/10/21 03:32:48;;;;;;;11.57;9.00;;;;;;;15.52;nan;99041.63;4941006;28;20234;-78
2022/10/21 03:35:14;;;;;;;15.10;8.80;;;;;;;15.51;nan;99050.56;4940531;29;20237;-77
2022/10/21 03:37:39;;;;;;;11.43;9.43;;;;;;;15.50;nan;99052.38;4939179;28;20713;-77
2022/10/21 03:40:07;;;;;;;12.87;9.57;;;;;;;15.52;nan;99053.06;4940031;28;20284;-78
2022/10/21 03:42:32;;;;;;;15.23;9.95;;;;;;;15.52;nan;99058.34;4942951;28;20207;-77
2022/10/21 03:44:58;;;;;;;15.03;9.60;;;;;;;15.51;nan;99059.34;4944157;28;20191;-78
2022/10/21 03:47:23;;;;;;;13.33;10.77;;;;;;;15.52;nan;99061.00;4944404;29;20253;-77
2022/10/21 03:49:49;;;;;;;10.80;9.47;;;;;;;15.53;nan;99067.97;4941672;28;20211;-78
2022/10/21 03:52:14;;;;;;;15.40;9.83;;;;;;;15.54;nan;99061.69;4945045;29;20553;-78
2022/10/21 03:54:40;;;;;;;16.50;10.63;;;;;;;15.57;nan;99065.88;4947782;29;20258;-78
2022/10/21 03:57:05;;;;;;;12.43;11.13;;;;;;;15.59;nan;99063.94;4947266;29;20193;-78
2022/10/21 03:59:31;;;;;;;12.50;9.70;;;;;;;15.59;nan;99067.41;4945939;28;20376;-78
2022/10/21 04:01:56;;;;;;;15.40;10.60;;;;;;;15.61;nan;99069.91;4949085;29;20675;-79
2022/10/21 04:04:22;;;;;;;16.73;11.40;;;;;;;15.62;nan;99064.47;4945279;28;20193;-79
2022/10/21 04:06:47;;;;;;;12.83;9.90;;;;;;;15.63;nan;99066.13;4947006;28;20567;-79
2022/10/21 04:09:13;;;;;;;15.00;10.70;;;;;;;15.65;nan;99063.34;4943784;28;20211;-79
2022/10/21 04:11:38;;;;;;;14.60;10.47;;;;;;;15.65;nan;99066.81;4949435;29;20287;-79
2022/10/21 04:14:03;;;;;;;15.20;11.07;;;;;;;15.66;nan;99062.34;4946610;28;20249;-79
2022/10/21 04:16:29;;;;;;;13.33;11.00;;;;;;;15.67;nan;99059.56;4947018;29;20252;-79
2022/10/21 04:18:54;;;;;;;15.20;11.37;;;;;;;15.68;nan;99055.97;4945151;28;20219;-78
2022/10/21 04:21:20;;;;;;;16.10;10.73;;;;;;;15.69;nan;99049.72;4948484;29;20228;-80
2022/10/21 04:23:45;;;;;;;13.23;11.83;;;;;;;15.70;nan;99040.78;4946844;29;20214;-80
2022/10/21 04:26:11;;;;;;;13.20;10.83;;;;;;;15.71;nan;99038.97;4942995;28;20193;-79
2022/10/21 04:28:37;;;;;;;11.70;9.50;;;;;;;15.71;nan;99036.31;4944550;28;20190;-80
2022/10/21 04:31:02;;;;;;;13.93;11.60;;;;;;;15.70;nan;99030.19;4946809;29;20189;-79
2022/10/21 04:33:28;;;;;;;13.50;9.20;;;;;;;15.69;nan;99025.06;4947891;29;20261;-79
2022/10/21 04:35:54;;;;;;;14.50;11.47;;;;;;;15.71;nan;99028.38;4947952;29;20206;-80
2022/10/21 04:38:21;;;;;;;13.02;9.57;;;;;;;15.73;nan;99030.88;4943949;28;20289;-79
2022/10/21 04:40:46;;;;;;;13.88;9.45;;;;;;;15.75;nan;99023.66;4941471;29;20206;-79
2022/10/21 04:43:12;;;;;;;13.83;11.70;;;;;;;15.77;nan;99027.81;4945073;29;20190;-79
2022/10/21 04:45:38;;;;;;;12.40;9.00;;;;;;;15.79;nan;99027.66;4946600;29;20214;-79
2022/10/21 04:48:05;;;;;;;13.85;9.75;;;;;;;15.78;nan;99029.47;4942712;28;20695;-78
2022/10/21 04:50:31;;;;;;;12.98;10.70;;;;;;;15.78;nan;99018.06;4944875;28;20211;-79
2022/10/21 04:52:59;;;;;;;15.63;10.73;;;;;;;15.77;nan;99019.88;4945594;29;20432;-79
2022/10/21 04:55:25;;;;;;;18.83;11.20;;;;;;;15.75;nan;99008.59;4948434;28;20206;-79
2022/10/21 04:57:50;;;;;;;16.30;11.00;;;;;;;15.74;nan;98983.06;4944227;28;20197;-80
2022/10/21 05:00:16;;;;;;;14.83;10.93;;;;;;;15.74;nan;98979.59;4963727;23;20793;-76
2022/10/21 05:02:41;;;;;;;16.67;13.10;;;;;;;15.72;nan;98977.09;4961344;28;20268;-77
2022/10/21 05:05:07;;;;;;;16.23;12.80;;;;;;;15.73;nan;98970.00;4967225;28;20209;-77
2022/10/21 05:07:32;;;;;;;15.00;10.50;;;;;;;15.75;nan;98975.97;4970925;28;20279;-76
2022/10/21 05:09:58;;;;;;;15.10;10.20;;;;;;;15.75;nan;98976.81;4970994;28;20946;-78
2022/10/21 05:12:23;;;;;;;18.23;11.67;;;;;;;15.77;nan;98984.59;4974142;28;20283;-78
2022/10/21 05:14:48;;;;;;;15.33;9.50;;;;;;;15.78;nan;98989.75;4972792;28;20194;-78
2022/10/21 05:17:14;;;;;;;12.67;9.83;;;;;;;15.80;nan;99006.34;4972853;28;20666;-76
2022/10/21 05:19:39;;;;;;;18.20;10.77;;;;;;;15.80;nan;99014.28;4969204;28;20338;-76
2022/10/21 05:22:05;;;;;;;16.00;11.07;;;;;;;15.82;nan;99003.53;4974041;28;20205;-78
2022/10/21 05:24:30;;;;;;;15.83;11.23;;;;;;;15.83;nan;98999.91;4969357;28;21138;-77
2022/10/21 05:26:55;;;;;;;11.23;9.93;;;;;;;15.79;nan;99004.66;4969692;28;20229;-77
2022/10/21 05:29:21;;;;;;;11.20;9.97;;;;;;;15.75;nan;99013.06;4972117;28;20185;-77
2022/10/21 05:31:46;;;;;;;10.67;9.57;;;;;;;15.73;nan;98999.94;4970204;28;20204;-77
2022/10/21 05:34:12;;;;;;;12.00;8.10;;;;;;;15.71;nan;98991.31;4971202;28;20351;-76
2022/10/21 05:36:37;;;;;;;11.80;9.60;;;;;;;15.68;nan;98995.06;4971408;28;20188;-78
2022/10/21 05:39:03;;;;;;;11.53;8.37;;;;;;;15.68;nan;98986.28;4967854;28;20189;-78
2022/10/21 05:41:28;;;;;;;9.40;8.33;;;;;;;15.68;nan;98980.97;4967948;28;20280;-75
2022/10/21 05:43:53;;;;;;;11.00;8.53;;;;;;;15.67;nan;98963.44;4971764;28;20201;-77
2022/10/21 05:46:19;;;;;;;8.77;7.40;;;;;;;15.67;nan;98969.56;4963782;28;20230;-77
2022/10/21 05:48:44;;;;;;;10.30;8.77;;;;;;;15.67;nan;98974.84;4962065;28;20192;-79
2022/10/21 05:51:10;;;;;;;9.87;8.87;;;;;;;15.64;nan;98938.09;4964669;28;20292;-76
2022/10/21 05:53:35;;;;;;;11.67;9.00;;;;;;;15.60;nan;98930.56;4967350;28;21194;-76
2022/10/21 05:56:03;;;;;;;9.13;8.07;;;;;;;15.60;nan;98938.50;4965031;28;20671;-80
2022/10/21 05:58:30;;;;;;;11.30;8.68;;;;;;;15.60;nan;98946.47;4966889;28;20198;-76
2022/10/21 06:00:57;;;;;;;11.57;9.93;;;;;;;15.61;nan;98954.25;4966055;28;20273;-78
2022/10/21 06:03:24;;;;;;;11.77;9.60;;;;;;;15.63;nan;98954.09;4965468;28;20205;-79
2022/10/21 06:05:50;;;;;;;11.50;10.30;;;;;;;15.67;nan;98950.19;4965601;28;20716;-80
2022/10/21 06:08:16;;;;;;;13.07;10.00;;;;;;;15.70;nan;98971.94;4956816;28;20272;-80
2022/10/21 06:10:41;;;;;;;13.50;11.13;;;;;;;15.73;nan;98968.16;4956397;28;20818;-77
2022/10/21 06:13:07;;;;;;;13.77;10.67;;;;;;;15.77;nan;98995.19;4959271;28;20186;-77
2022/10/21 06:15:32;;;;;;;13.87;11.00;;;;;;;15.78;nan;98951.84;4958940;28;20591;-78
2022/10/21 06:17:58;;;;;;;17.30;11.00;;;;;;;15.77;nan;98960.75;4957044;28;20202;-78
2022/10/21 06:20:23;;;;;;;21.13;11.37;;;;;;;15.79;nan;98977.34;4951160;28;20218;-79
2022/10/21 06:22:48;;;;;;;12.73;10.17;;;;;;;15.74;nan;98938.06;4957955;28;20605;-83
2022/10/21 06:25:14;;;;;;;15.20;9.70;;;;;;;15.74;nan;98947.81;4952265;28;20479;-79
2022/10/21 06:27:39;;;;;;;12.43;9.90;;;;;;;15.76;nan;98972.34;4951969;28;20190;-75
2022/10/21 06:30:05;;;;;;;15.87;11.27;;;;;;;15.79;nan;98953.50;4950335;28;20772;-79
2022/10/21 06:32:31;;;;;;;20.70;12.17;;;;;;;15.81;nan;98978.03;4948478;28;20337;-75
2022/10/21 06:34:57;;;;;;;15.85;11.65;;;;;;;15.84;nan;98973.28;4949025;28;20495;-77
2022/10/21 06:37:22;;;;;;;16.40;11.30;;;;;;;15.88;nan;98965.88;4947651;28;20178;-78
2022/10/21 06:39:48;;;;;;;17.37;12.20;;;;;;;15.89;nan;98978.97;4948534;28;20280;-76
2022/10/21 06:42:14;;;;;;;17.13;12.63;;;;;;;15.89;nan;98973.66;4948189;28;20240;-78
2022/10/21 06:44:41;;;;;;;15.02;12.57;;;;;;;15.90;nan;98964.75;4950744;28;20269;-80
2022/10/21 06:47:07;;;;;;;24.60;12.53;;;;;;;15.92;nan;98959.31;4952974;28;20198;-77
2022/10/21 06:49:32;;;;;;;15.50;10.95;;;;;;;15.92;nan;98978.66;4949797;28;20248;-79
2022/10/21 06:51:58;;;;;;;12.90;11.40;;;;;;;15.95;nan;98942.28;4957236;28;20202;-77
2022/10/21 06:54:25;;;;;;;14.77;11.47;;;;;;;15.86;nan;98944.00;4962645;28;20216;-76
2022/10/21 06:56:51;;;;;;;15.25;11.02;;;;;;;15.85;nan;99021.78;4966877;28;20363;-80
2022/10/21 06:59:16;;;;;;;15.77;12.50;;;;;;;15.84;nan;98956.56;4961432;28;20204;-77
2022/10/21 07:01:41;;;;;;;22.03;16.80;;;;;;;15.75;nan;98899.19;4959326;28;20227;-75
2022/10/21 07:04:08;;;;;;;20.13;15.47;;;;;;;15.75;nan;98917.72;4961803;28;20239;-79
2022/10/21 07:06:34;;;;;;;17.42;12.70;;;;;;;15.80;nan;98969.28;4967064;28;20189;-76
2022/10/21 07:08:59;;;;;;;17.40;12.87;;;;;;;15.84;nan;98986.50;4963852;28;20193;-82
2022/10/21 07:11:26;;;;;;;19.13;13.27;;;;;;;15.88;nan;98961.41;4959934;28;20201;-81
2022/10/21 07:13:52;;;;;;;17.90;13.65;;;;;;;15.90;nan;98940.06;4966962;28;20593;-80
2022/10/21 07:16:22;;;;;;;24.03;15.00;;;;;;;15.93;nan;98937.97;4960488;28;20646;-81
2022/10/21 07:18:48;;;;;;;19.60;12.20;;;;;;;15.98;nan;98939.34;4966309;28;20197;-80
2022/10/21 07:21:16;;;;;;;17.60;11.63;;;;;;;16.01;nan;98955.75;4961440;28;20218;-80
2022/10/21 07:23:46;;;;;;;23.00;12.82;;;;;;;16.05;nan;98975.69;4959578;28;20755;-78
2022/10/21 07:26:12;;;;;;;15.25;11.38;;;;;;;16.10;nan;98991.16;4961374;28;20185;-78
2022/10/21 07:28:39;;;;;;;16.83;10.90;;;;;;;16.15;nan;99004.78;4964994;28;20249;-76
2022/10/21 07:31:05;;;;;;;16.05;11.60;;;;;;;16.22;nan;99028.84;4959294;28;20178;-82
2022/10/21 07:33:32;;;;;;;14.35;11.20;;;;;;;16.23;nan;99065.81;4965348;28;20898;-78
2022/10/21 07:36:04;;;;;;;13.63;10.70;;;;;;;16.25;nan;99052.41;4963733;28;20228;-80
2022/10/21 07:38:29;;;;;;;12.73;10.32;;;;;;;16.25;nan;99078.91;4968386;28;20189;-79
2022/10/21 07:40:56;;;;;;;12.70;9.83;;;;;;;16.25;nan;99113.34;4962083;28;20216;-78
2022/10/21 07:43:22;;;;;;;11.98;9.48;;;;;;;16.26;nan;99146.84;4958352;28;20197;-79
2022/10/21 07:45:47;;;;;;;14.90;8.63;;;;;;;16.25;nan;99106.25;4965574;28;20208;-81
2022/10/21 07:50:47;;;;;;;9.25;6.35;;;;;;;16.28;nan;99099.81;4944251;29;20878;-76
2022/10/21 07:53:13;;;;;;;8.03;7.00;;;;;;;16.31;nan;99102.16;4946876;28;20848;-76
2022/10/21 07:55:38;;;;;;;11.40;6.40;;;;;;;16.34;nan;99084.19;4952376;28;20912;-74
2022/10/21 07:58:04;;;;;;;8.73;6.30;;;;;;;16.36;nan;99090.16;4950226;28;20529;-76
2022/10/21 08:00:29;;;;;;;7.23;5.20;;;;;;;16.36;nan;99102.56;4945064;28;20403;-75
2022/10/21 08:02:55;;;;;;;7.50;4.83;;;;;;;16.39;nan;99094.34;4943668;28;20600;-77
2022/10/21 08:05:21;;;;;;;6.40;4.90;;;;;;;16.44;nan;99081.47;4936254;28;20342;-75
2022/10/21 08:07:47;;;;;;;11.32;6.63;;;;;;;16.48;nan;99095.28;4937458;28;20434;-75
2022/10/21 08:10:12;;;;;;;6.80;4.80;;;;;;;16.52;nan;99108.06;4934267;28;20202;-77
2022/10/21 08:12:37;;;;;;;13.03;4.57;;;;;;;16.57;nan;99116.41;4935900;28;20199;-74
2022/10/21 08:15:03;;;;;;;8.63;4.33;;;;;;;16.63;nan;99119.44;4934044;28;20189;-75
2022/10/21 08:17:29;;;;;;;7.47;4.40;;;;;;;16.67;nan;99112.88;4933862;28;20345;-75
2022/10/21 08:19:55;;;;;;;4.90;3.93;;;;;;;16.70;nan;99118.72;4928930;28;20556;-75
2022/10/21 08:22:20;;;;;;;12.77;6.20;;;;;;;16.74;nan;99127.19;4935976;28;20196;-75
2022/10/21 08:24:46;;;;;;;11.07;5.60;;;;;;;16.78;nan;99123.31;4933392;28;20569;-76
2022/10/21 08:27:12;;;;;;;8.40;5.60;;;;;;;16.79;nan;99120.50;4936569;28;21494;-76
2022/10/21 08:29:37;;;;;;;5.70;4.43;;;;;;;16.83;nan;99122.88;4936734;28;20755;-76
2022/10/21 08:32:03;;;;;;;8.47;4.30;;;;;;;16.85;nan;99131.50;4935264;28;20191;-76
2022/10/21 08:34:29;;;;;;;13.13;5.20;;;;;;;16.86;nan;99146.44;4938207;28;20450;-76
2022/10/21 08:36:54;;;;;;;8.50;4.10;;;;;;;16.88;nan;99147.97;4937244;28;20193;-75
2022/10/21 08:39:20;;;;;;;9.43;3.50;;;;;;;16.88;nan;99150.63;4936329;28;20179;-75
2022/10/21 08:41:56;;;;;;;6.57;3.50;;;;;;;16.91;nan;99139.72;4935620;28;20247;-76
2022/10/21 08:44:30;;;;;;;9.60;4.82;;;;;;;16.95;nan;99148.19;4937430;28;20191;-76
2022/10/21 08:47:43;;;;;;;6.35;4.53;;;;;;;16.97;nan;99148.88;4935852;29;20286;-76
2022/10/21 08:50:20;;;;;;;5.57;3.85;;;;;;;17.00;nan;99157.38;4935328;29;20257;-76
2022/10/21 08:52:57;;;;;;;5.88;4.38;;;;;;;17.05;nan;99148.13;4935370;29;20204;-76
2022/10/21 08:55:33;;;;;;;6.10;4.80;;;;;;;17.08;nan;99145.19;4935764;28;20189;-76
2022/10/21 08:58:00;;;;;;;3.75;2.50;;;;;;;17.11;nan;99156.31;4938137;29;20286;-75
2022/10/21 09:00:32;;;;;;;3.58;2.53;;;;;;;17.14;nan;99149.88;4928649;28;20593;-76
2022/10/21 09:03:04;;;;;;;3.78;1.88;;;;;;;17.19;nan;99152.91;4932905;28;20677;-76
2022/10/21 09:05:57;;;;;;;2.45;1.77;;;;;;;17.24;nan;99159.44;4932370;28;20601;-76
2022/10/21 09:08:32;;;;;;;3.97;1.55;;;;;;;17.30;nan;99159.81;4937022;29;20225;-76
2022/10/21 09:11:26;;;;;;;2.05;1.30;;;;;;;17.35;nan;99166.34;4929919;28;20824;-76
2022/10/21 09:14:28;;;;;;;4.20;2.28;;;;;;;17.41;nan;99160.41;4895075;28;20634;-76
2022/10/21 09:17:17;;;;;;;1.90;1.50;;;;;;;17.46;nan;99173.25;4925806;28;20177;-75
2022/10/21 09:20:01;;;;;;;3.25;1.85;;;;;;;17.47;nan;99174.91;4908386;28;20233;-75
2022/10/21 09:22:44;;;;;;;1.98;1.30;;;;;;;17.51;nan;99178.09;4946229;28;20840;-77
2022/10/21 09:25:28;;;;;;;1.42;1.08;;;;;;;17.53;nan;99181.44;4947903;28;20674;-75
2022/10/21 09:27:55;;;;;;;1.75;1.10;;;;;;;17.53;nan;99176.13;4957883;28;20588;-74
2022/10/21 09:30:21;;;;;;;1.58;1.15;;;;;;;17.57;nan;99182.81;4956901;28;20198;-75
2022/10/21 09:32:49;;;;;;;2.33;1.70;;;;;;;17.59;nan;99175.53;4956684;28;20563;-76
2022/10/21 09:35:33;;;;;;;2.00;1.27;;;;;;;17.72;nan;99183.09;4957294;28;20220;-75
2022/10/21 09:38:25;;;;;;;2.10;1.17;;;;;;;17.84;nan;99184.53;4957121;28;20195;-76
2022/10/21 09:40:59;;;;;;;3.80;1.15;;;;;;;17.91;nan;99181.13;4954773;28;20232;-75
2022/10/21 09:43:26;;;;;;;2.65;1.33;;;;;;;18.01;nan;99185.50;4956570;28;20333;-75
2022/10/21 09:45:52;;;;;;;4.70;2.33;;;;;;;18.08;nan;99191.84;4955530;28;20195;-77
2022/10/21 09:48:18;;;;;;;1.30;1.20;;;;;;;18.12;nan;99193.22;4953576;28;20194;-76
2022/10/21 09:50:59;;;;;;;1.40;0.90;;;;;;;18.09;nan;99189.06;4956009;28;20715;-75
2022/10/21 09:53:37;;;;;;;2.60;0.90;;;;;;;18.04;nan;99193.19;4959844;28;20294;-77
2022/10/21 09:56:10;;;;;;;2.45;1.42;;;;;;;17.95;nan;99189.59;4957213;28;20202;-77
2022/10/21 09:58:35;;;;;;;2.13;1.17;;;;;;;17.85;nan;99194.19;4960086;28;20840;-75
2022/10/21 10:01:02;;;;;;;3.00;2.00;;;;;;;17.77;nan;99202.91;4957660;28;20205;-77
2022/10/21 10:03:36;;;;;;;1.40;1.10;;;;;;;17.68;nan;99206.47;4958997;28;20198;-76
2022/10/21 10:06:04;;;;;;;2.80;1.77;;;;;;;17.60;nan;99193.13;4956822;28;20195;-76
2022/10/21 10:08:34;;;;;;;3.50;1.45;;;;;;;17.54;nan;99201.69;4957040;28;20527;-76
2022/10/21 10:11:21;;;;;;;3.10;1.27;;;;;;;17.47;nan;99201.44;4955746;28;20225;-76
2022/10/21 10:13:52;;;;;;;2.05;1.42;;;;;;;17.43;nan;99198.28;4959103;28;20254;-76
2022/10/21 10:16:21;;;;;;;3.30;2.40;;;;;;;17.40;nan;99197.75;4958722;28;20192;-77
2022/10/21 10:18:49;;;;;;;3.35;1.90;;;;;;;17.37;nan;99201.53;4957523;28;20212;-77
2022/10/21 10:21:20;;;;;;;6.40;3.50;;;;;;;17.34;nan;99198.38;4961112;28;20516;-77
2022/10/21 10:23:52;;;;;;;2.30;2.10;;;;;;;17.33;nan;99200.16;4961459;28;20203;-76
2022/10/21 10:26:26;;;;;;;2.10;1.52;;;;;;;17.33;nan;99202.81;4958799;28;20538;-76
2022/10/21 10:29:25;;;;;;;2.72;1.30;;;;;;;17.33;nan;99194.84;4958103;28;20561;-77
2022/10/21 10:31:56;;;;;;;1.70;1.30;;;;;;;17.34;nan;99185.09;4940841;28;20407;-77
2022/10/21 10:34:35;;;;;;;4.63;2.05;;;;;;;17.35;nan;99190.22;4965530;28;20728;-77
2022/10/21 10:37:06;;;;;;;2.83;1.42;;;;;;;17.37;nan;99209.50;4960964;28;20667;-75
2022/10/21 10:39:37;;;;;;;1.10;1.00;;;;;;;17.39;nan;99219.97;4956781;28;20206;-77
2022/10/21 10:42:03;;;;;;;2.85;1.30;;;;;;;17.38;nan;99227.09;4959995;28;20199;-76
2022/10/21 10:44:37;;;;;;;3.23;1.60;;;;;;;17.38;nan;99215.66;4957703;28;20197;-76
2022/10/21 10:47:06;;;;;;;4.40;1.95;;;;;;;17.35;nan;99222.09;4955758;28;20487;-75
2022/10/21 10:49:40;;;;;;;5.55;1.77;;;;;;;17.35;nan;99223.91;4958953;28;20343;-76
2022/10/21 10:52:05;;;;;;;3.95;1.80;;;;;;;17.37;nan;99225.44;4960352;28;20726;-76
2022/10/21 10:54:32;;;;;;;2.50;1.40;;;;;;;17.40;nan;99221.66;4957197;28;20204;-76
2022/10/21 10:57:19;;;;;;;6.28;1.73;;;;;;;17.44;nan;99229.16;4956609;28;20264;-77
2022/10/21 11:03:05;;;;;;;3.05;1.40;;;;;;;17.56;nan;99234.25;4904541;29;20224;-77
2022/10/21 11:05:38;;;;;;;8.00;1.77;;;;;;;17.61;nan;99230.16;4914096;29;20239;-77
2022/10/21 11:08:29;;;;;;;5.30;1.50;;;;;;;17.68;nan;99248.97;4904609;29;20201;-79
2022/10/21 11:11:00;;;;;;;2.95;1.80;;;;;;;17.73;nan;99252.00;4911345;29;20774;-77
2022/10/21 11:13:27;;;;;;;2.00;1.50;;;;;;;17.76;nan;99246.38;4902787;29;20206;-77
2022/10/21 11:15:52;;;;;;;3.97;1.83;;;;;;;17.79;nan;99251.41;4900555;29;20231;-77
2022/10/21 11:18:23;;;;;;;2.60;1.37;;;;;;;17.79;nan;99243.44;4902660;29;20566;-77
2022/10/21 11:21:24;;;;;;;2.85;1.48;;;;;;;17.78;nan;99239.09;4902206;29;20695;-77
2022/10/21 11:24:27;;;;;;;3.20;1.45;;;;;;;17.77;nan;99233.91;4877997;29;20443;-78
2022/10/21 11:27:02;;;;;;;2.65;1.85;;;;;;;17.71;nan;99235.38;4902920;29;20571;-78
2022/10/21 11:29:49;;;;;;;2.63;1.52;;;;;;;17.69;nan;99234.72;4902212;29;20294;-78
2022/10/21 11:32:33;;;;;;;3.05;1.40;;;;;;;17.69;nan;99234.72;4901780;29;20196;-78
2022/10/21 11:35:16;;;;;;;2.97;1.20;;;;;;;17.66;nan;99229.69;4899310;29;20211;-78
2022/10/21 11:37:48;;;;;;;1.63;1.13;;;;;;;17.63;nan;99222.00;4902461;29;21009;-78
2022/10/21 11:40:30;;;;;;;2.38;1.40;;;;;;;17.59;nan;99218.84;4903303;29;20234;-78
2022/10/21 11:43:23;;;;;;;2.13;1.50;;;;;;;17.57;nan;99209.34;4901459;29;20256;-78
2022/10/21 11:45:53;;;;;;;2.75;1.13;;;;;;;17.53;nan;99235.38;4894748;29;20568;-78
2022/10/21 11:48:33;;;;;;;1.30;1.20;;;;;;;17.52;nan;99246.97;4901751;29;20304;-78
2022/10/21 11:51:10;;;;;;;2.78;1.50;;;;;;;17.50;nan;99256.06;4900870;29;20279;-77
2022/10/21 11:53:54;;;;;;;1.70;1.23;;;;;;;17.47;nan;99251.91;4900287;29;20669;-78
2022/10/21 11:56:32;;;;;;;4.50;1.60;;;;;;;17.43;nan;99240.75;4902623;29;20298;-79
2022/10/21 11:59:10;;;;;;;2.92;1.92;;;;;;;17.42;nan;99244.41;4905914;29;20206;-78